Brunei International Airport
WBSB : now visible

Aeroporto :











RITROVATECI SU...

 
LOGIN :

Iscrizione | Disclaimer

   EN    FR    IT 

 









Sommario :    VFR   VFR Marginale   IFR   IFR Intensivo   IFR Molto Intensivo
Visibilità : 
Base nubi : 
>= 8 km
>= 3000ft
5 / 8 km
1000 / 3000 ft
1500m / 5 km
500 / 1000 ft
800 / 1500m
200 / 500 ft
< 800m
< 200 ft
Simboli :   Temporali  Nebbia  Neve Forte  Precipitazioni Forti  Vento > 20 kt






- Altitudine del aeroporto : 73 ft
- Codice IATA : BWN


WBSB - Brunei International

ULTIMO METAR :
  • 171930Z 01009KT 9000 SCT015 BKN300 27/25 Q1012 NOSIG

METARs OBSOLETI :
  • 171900Z 02012KT 9000 SCT015 BKN300 27/24 Q1012 NOSIG
  • 171830Z 02011KT 9000 SCT015 BKN300 27/24 Q1012 NOSIG
  • 171800Z 02011KT 9000 SCT015 BKN300 27/24 Q1012 NOSIG
  • 171730Z 02010KT 9000 SCT015 BKN300 27/24 Q1013 NOSIG
  • 171700Z 02012KT 9000 SCT015 BKN300 27/24 Q1013 NOSIG

TAF TAF WBSB
Valido dal 17 a 18 ore il 19 a 00 ore UTC


171650Z 1718/1900 02005KT 9000 SCT014
TEMPO 1718/1720 8000 -SHRA
BECMG 1802/1804 01012KT FEW016



MetMap, La meteo Aeronautica in un colpo d'occhio ! - Copyright ORBIFLY Dicembre 2007 - Disclaimer

ORBIFLY MET'MAP TEAM :

Programmazione e sviluppo : Alexandra Zaïnal
Concezione : Baudouin d'Aumeries
Aiuto per la programmazione : Marc-Olivier Méhu
Supporto tecnico e logistico : Manuel Goepfert
Aiuto per la traduzione : Arnaldo La Scala

Contatto : metmap@orbifly.com




FONTI E CREDITI :

   NOAA       Earth
Advisory